CAL69 RCTP-RJTT
Flight info
| Callsign | CAL69 |
|---|---|
| Flight time | 2h 32m |
| Altitude | 41000 |
| Route | MOLKA1C MOLKA M750 BILLY Y21 AKSEL AKSEL2N |
| Aircraft | A359/H-SDE2E3GHIJ3J4J5LM1ORWXY/LB1D1 |
Departure
| Time | 2026-05-05 16:45 |
|---|---|
| Airport | Taiwan Taoyuan International Airport (RCTP) |
Arrival
| Time | 2026-05-05 19:17 |
|---|---|
| Airport | Tokyo Haneda International Airport (RJTT) |
| Time | Latitude | Longitude | Altitude | Speed | Heading |
|---|---|---|---|---|---|
| 2026-05-05 16:22 | 25.08137 | 121.23330 | 93 ft | 0 kts | 139° |
| 2026-05-05 16:25 | 25.08139 | 121.23328 | 90 ft | 3 kts | 139° |
| 2026-05-05 16:25 | 25.08152 | 121.23315 | 93 ft | 3 kts | 139° |
| 2026-05-05 16:26 | 25.08174 | 121.23294 | 92 ft | 3 kts | 147° |
| 2026-05-05 16:26 | 25.08137 | 121.23330 | 90 ft | 0 kts | 139° |
| 2026-05-05 16:27 | 25.08136 | 121.23330 | 90 ft | 1 kts | 139° |
| 2026-05-05 16:35 | 25.08138 | 121.23329 | 90 ft | 2 kts | 139° |
| 2026-05-05 16:35 | 25.08151 | 121.23316 | 90 ft | 3 kts | 139° |
| 2026-05-05 16:35 | 25.08164 | 121.23303 | 90 ft | 2 kts | 139° |
| 2026-05-05 16:35 | 25.08177 | 121.23291 | 90 ft | 2 kts | 139° |
| 2026-05-05 16:36 | 25.08193 | 121.23279 | 90 ft | 3 kts | 170° |
| 2026-05-05 16:36 | 25.08212 | 121.23279 | 90 ft | 3 kts | 211° |
| 2026-05-05 16:36 | 25.08221 | 121.23286 | 91 ft | 0 kts | 227° |
| 2026-05-05 16:38 | 25.08210 | 121.23268 | 91 ft | 5 kts | 241° |
| 2026-05-05 16:39 | 25.08190 | 121.23233 | 92 ft | 6 kts | 235° |
| 2026-05-05 16:39 | 25.08169 | 121.23187 | 93 ft | 6 kts | 258° |
| 2026-05-05 16:39 | 25.08180 | 121.23144 | 93 ft | 6 kts | 307° |
| 2026-05-05 16:39 | 25.08200 | 121.23101 | 94 ft | 7 kts | 289° |
| 2026-05-05 16:40 | 25.08192 | 121.23068 | 94 ft | 5 kts | 244° |
| 2026-05-05 16:40 | 25.08160 | 121.23028 | 91 ft | 10 kts | 230° |
| 2026-05-05 16:40 | 25.08103 | 121.22955 | 95 ft | 14 kts | 229° |
| 2026-05-05 16:40 | 25.08037 | 121.22871 | 95 ft | 15 kts | 229° |
| 2026-05-05 16:41 | 25.07966 | 121.22780 | 95 ft | 16 kts | 229° |
| 2026-05-05 16:41 | 25.07891 | 121.22686 | 93 ft | 17 kts | 229° |
| 2026-05-05 16:41 | 25.07816 | 121.22588 | 97 ft | 17 kts | 229° |
| 2026-05-05 16:41 | 25.07764 | 121.22523 | 97 ft | 17 kts | 229° |
| 2026-05-05 16:42 | 25.07684 | 121.22424 | 97 ft | 18 kts | 228° |
| 2026-05-05 16:42 | 25.07576 | 121.22287 | 97 ft | 18 kts | 229° |
| 2026-05-05 16:42 | 25.07521 | 121.22217 | 99 ft | 18 kts | 229° |
| 2026-05-05 16:42 | 25.07438 | 121.22111 | 98 ft | 18 kts | 229° |
| 2026-05-05 16:43 | 25.07329 | 121.21972 | 98 ft | 18 kts | 229° |
| 2026-05-05 16:43 | 25.07275 | 121.21902 | 101 ft | 18 kts | 229° |
| 2026-05-05 16:43 | 25.07180 | 121.21774 | 100 ft | 13 kts | 249° |
| 2026-05-05 16:43 | 25.07197 | 121.21717 | 100 ft | 12 kts | 308° |
| 2026-05-05 16:44 | 25.07260 | 121.21657 | 103 ft | 12 kts | 322° |
| 2026-05-05 16:44 | 25.07335 | 121.21663 | 102 ft | 13 kts | 42° |
| 2026-05-05 16:44 | 25.07415 | 121.21764 | 102 ft | 34 kts | 49° |
| 2026-05-05 16:44 | 25.07741 | 121.22176 | 98 ft | 106 kts | 49° |
| 2026-05-05 16:45 | 25.08362 | 121.22966 | 93 ft | 164 kts | 49° |
| 2026-05-05 16:45 | 25.09156 | 121.23945 | 628 ft | 173 kts | 47° |
| 2026-05-05 16:45 | 25.09995 | 121.24919 | 1333 ft | 180 kts | 46° |
| 2026-05-05 16:45 | 25.10853 | 121.26005 | 1663 ft | 198 kts | 49° |
| 2026-05-05 16:46 | 25.11778 | 121.27232 | 1866 ft | 218 kts | 50° |
| 2026-05-05 16:46 | 25.12812 | 121.28591 | 2071 ft | 243 kts | 49° |
| 2026-05-05 16:46 | 25.13942 | 121.30075 | 2425 ft | 260 kts | 50° |
| 2026-05-05 16:46 | 25.15124 | 121.31621 | 2973 ft | 267 kts | 50° |
| 2026-05-05 16:47 | 25.16341 | 121.33207 | 3510 ft | 274 kts | 49° |
| 2026-05-05 16:47 | 25.17584 | 121.34824 | 4103 ft | 279 kts | 49° |
| 2026-05-05 16:47 | 25.18847 | 121.36466 | 4771 ft | 281 kts | 49° |
| 2026-05-05 16:47 | 25.20120 | 121.38120 | 5358 ft | 284 kts | 49° |
| 2026-05-05 16:48 | 25.21408 | 121.39796 | 5929 ft | 288 kts | 49° |
| 2026-05-05 16:48 | 25.22715 | 121.41496 | 6491 ft | 292 kts | 48° |
| 2026-05-05 16:48 | 25.24037 | 121.43216 | 6999 ft | 296 kts | 48° |
| 2026-05-05 16:48 | 25.25379 | 121.44962 | 7554 ft | 300 kts | 48° |
| 2026-05-05 16:49 | 25.26734 | 121.46739 | 8099 ft | 304 kts | 49° |
| 2026-05-05 16:49 | 25.27841 | 121.48727 | 8715 ft | 306 kts | 67° |
| 2026-05-05 16:49 | 25.28448 | 121.50984 | 9297 ft | 309 kts | 76° |
| 2026-05-05 16:49 | 25.28906 | 121.53333 | 9833 ft | 315 kts | 78° |
| 2026-05-05 16:50 | 25.29353 | 121.55722 | 10220 ft | 324 kts | 78° |
| 2026-05-05 16:50 | 25.29826 | 121.58214 | 10426 ft | 339 kts | 78° |
| 2026-05-05 16:50 | 25.30326 | 121.60812 | 10638 ft | 353 kts | 78° |
| 2026-05-05 16:50 | 25.30849 | 121.63514 | 10837 ft | 366 kts | 78° |
| 2026-05-05 16:51 | 25.31394 | 121.66313 | 11110 ft | 376 kts | 78° |
| 2026-05-05 16:51 | 25.31945 | 121.69143 | 11512 ft | 380 kts | 78° |
| 2026-05-05 16:51 | 25.32506 | 121.72020 | 11939 ft | 384 kts | 78° |
| 2026-05-05 16:51 | 25.33070 | 121.74918 | 12372 ft | 388 kts | 78° |
| 2026-05-05 16:52 | 25.33639 | 121.77847 | 12798 ft | 391 kts | 79° |
| 2026-05-05 16:52 | 25.34205 | 121.80760 | 13212 ft | 395 kts | 79° |
| 2026-05-05 16:52 | 25.34793 | 121.83791 | 13557 ft | 401 kts | 79° |
| 2026-05-05 16:52 | 25.35380 | 121.86817 | 13954 ft | 404 kts | 79° |
| 2026-05-05 16:53 | 25.35963 | 121.89828 | 14336 ft | 407 kts | 79° |
| 2026-05-05 16:53 | 25.36555 | 121.92887 | 14724 ft | 409 kts | 79° |
| 2026-05-05 16:53 | 25.37152 | 121.95975 | 15106 ft | 412 kts | 79° |
| 2026-05-05 16:53 | 25.37753 | 121.99092 | 15481 ft | 415 kts | 79° |
| 2026-05-05 16:54 | 25.38357 | 122.02222 | 15876 ft | 417 kts | 79° |
| 2026-05-05 16:54 | 25.38963 | 122.05372 | 16257 ft | 420 kts | 80° |
| 2026-05-05 16:54 | 25.39573 | 122.08543 | 16608 ft | 423 kts | 80° |
| 2026-05-05 16:54 | 25.40185 | 122.11728 | 17054 ft | 423 kts | 80° |
| 2026-05-05 16:55 | 25.40798 | 122.14921 | 17466 ft | 425 kts | 80° |
| 2026-05-05 16:55 | 25.41405 | 122.18092 | 17817 ft | 428 kts | 80° |
| 2026-05-05 16:55 | 25.42148 | 122.21333 | 18177 ft | 432 kts | 74° |
| 2026-05-05 16:55 | 25.43143 | 122.24482 | 18504 ft | 435 kts | 71° |
| 2026-05-05 16:56 | 25.44191 | 122.27588 | 18806 ft | 438 kts | 71° |
| 2026-05-05 16:56 | 25.45262 | 122.30746 | 19095 ft | 440 kts | 71° |
| 2026-05-05 16:56 | 25.46340 | 122.33933 | 19402 ft | 443 kts | 71° |
| 2026-05-05 16:56 | 25.47417 | 122.37132 | 19798 ft | 441 kts | 71° |
| 2026-05-05 16:57 | 25.48482 | 122.40298 | 20259 ft | 440 kts | 71° |
| 2026-05-05 16:57 | 25.49549 | 122.43479 | 20474 ft | 445 kts | 71° |
| 2026-05-05 16:57 | 25.50632 | 122.46711 | 20735 ft | 448 kts | 70° |
| 2026-05-05 16:57 | 25.51717 | 122.49951 | 21010 ft | 451 kts | 70° |
| 2026-05-05 16:58 | 25.52814 | 122.53233 | 21268 ft | 454 kts | 70° |
| 2026-05-05 16:58 | 25.53914 | 122.56522 | 21523 ft | 458 kts | 71° |
| 2026-05-05 16:58 | 25.55022 | 122.59844 | 21767 ft | 461 kts | 71° |
| 2026-05-05 16:58 | 25.56135 | 122.63182 | 22044 ft | 463 kts | 70° |
| 2026-05-05 16:59 | 25.57251 | 122.66530 | 22345 ft | 465 kts | 70° |
| 2026-05-05 16:59 | 25.58375 | 122.69905 | 22581 ft | 468 kts | 70° |
| 2026-05-05 16:59 | 25.59505 | 122.73301 | 22844 ft | 471 kts | 70° |
| 2026-05-05 16:59 | 25.60638 | 122.76711 | 23098 ft | 474 kts | 70° |
| 2026-05-05 17:00 | 25.61778 | 122.80145 | 23309 ft | 476 kts | 70° |
| 2026-05-05 17:00 | 25.62927 | 122.83608 | 23550 ft | 480 kts | 70° |
| 2026-05-05 17:00 | 25.64080 | 122.87087 | 23758 ft | 482 kts | 70° |
| 2026-05-05 17:00 | 25.65243 | 122.90568 | 24006 ft | 482 kts | 69° |
| 2026-05-05 17:01 | 25.66416 | 122.94029 | 24429 ft | 478 kts | 69° |
| 2026-05-05 17:01 | 25.67584 | 122.97481 | 24662 ft | 479 kts | 69° |
| 2026-05-05 17:01 | 25.68741 | 123.00909 | 24853 ft | 482 kts | 70° |
| 2026-05-05 17:01 | 25.69922 | 123.04413 | 24990 ft | 486 kts | 70° |
| 2026-05-05 17:02 | 25.71108 | 123.07937 | 25207 ft | 488 kts | 70° |
| 2026-05-05 17:02 | 25.72292 | 123.11462 | 25447 ft | 489 kts | 70° |
| 2026-05-05 17:02 | 25.73477 | 123.14992 | 25681 ft | 490 kts | 70° |
| 2026-05-05 17:02 | 25.74667 | 123.18540 | 25952 ft | 490 kts | 70° |
| 2026-05-05 17:03 | 25.75857 | 123.22092 | 26251 ft | 490 kts | 70° |
| 2026-05-05 17:03 | 25.77044 | 123.25638 | 26462 ft | 492 kts | 70° |
| 2026-05-05 17:03 | 25.78239 | 123.29214 | 26678 ft | 494 kts | 70° |
| 2026-05-05 17:03 | 25.79435 | 123.32795 | 26909 ft | 496 kts | 70° |
| 2026-05-05 17:04 | 25.80635 | 123.36392 | 27143 ft | 498 kts | 70° |
| 2026-05-05 17:04 | 25.81840 | 123.40005 | 27391 ft | 499 kts | 70° |
| 2026-05-05 17:04 | 25.83045 | 123.43623 | 27627 ft | 501 kts | 70° |
| 2026-05-05 17:04 | 25.84251 | 123.47245 | 27993 ft | 500 kts | 71° |
| 2026-05-05 17:05 | 25.85465 | 123.50872 | 28295 ft | 502 kts | 70° |
| 2026-05-05 17:05 | 25.86943 | 123.54388 | 28520 ft | 505 kts | 60° |
| 2026-05-05 17:05 | 25.88963 | 123.57584 | 28763 ft | 507 kts | 48° |
| 2026-05-05 17:05 | 25.91493 | 123.60303 | 29019 ft | 506 kts | 36° |
| 2026-05-05 17:06 | 25.94427 | 123.62438 | 29288 ft | 504 kts | 25° |
| 2026-05-05 17:06 | 25.97527 | 123.64136 | 29542 ft | 504 kts | 22° |
| 2026-05-05 17:06 | 26.00721 | 123.65788 | 29802 ft | 506 kts | 21° |
| 2026-05-05 17:06 | 26.03918 | 123.67438 | 30089 ft | 509 kts | 21° |
| 2026-05-05 17:07 | 26.10424 | 123.70821 | 30444 ft | 515 kts | 22° |
| 2026-05-05 17:07 | 26.13663 | 123.72514 | 30788 ft | 515 kts | 22° |
| 2026-05-05 17:07 | 26.16921 | 123.74219 | 31040 ft | 518 kts | 22° |
| 2026-05-05 17:08 | 26.20178 | 123.75925 | 31302 ft | 519 kts | 22° |
| 2026-05-05 17:08 | 26.23460 | 123.77647 | 31568 ft | 521 kts | 22° |
| 2026-05-05 17:08 | 26.26748 | 123.79372 | 31792 ft | 525 kts | 22° |
| 2026-05-05 17:08 | 26.30074 | 123.81118 | 31790 ft | 534 kts | 22° |
| 2026-05-05 17:09 | 26.33450 | 123.82892 | 31954 ft | 537 kts | 22° |
| 2026-05-05 17:09 | 26.36831 | 123.84671 | 32235 ft | 538 kts | 23° |
| 2026-05-05 17:09 | 26.40232 | 123.86463 | 32502 ft | 540 kts | 23° |
| 2026-05-05 17:09 | 26.43629 | 123.88252 | 32749 ft | 541 kts | 23° |
| 2026-05-05 17:10 | 26.47041 | 123.90051 | 32983 ft | 543 kts | 23° |
| 2026-05-05 17:10 | 26.50470 | 123.91859 | 33110 ft | 549 kts | 22° |
| 2026-05-05 17:10 | 26.57448 | 123.95542 | 33345 ft | 556 kts | 22° |
| 2026-05-05 17:11 | 26.60939 | 123.97391 | 33786 ft | 553 kts | 24° |
| 2026-05-05 17:11 | 26.64306 | 123.99484 | 34076 ft | 556 kts | 32° |
| 2026-05-05 17:11 | 26.67334 | 124.02180 | 34210 ft | 559 kts | 44° |
| 2026-05-05 17:11 | 26.70002 | 124.05363 | 34371 ft | 561 kts | 49° |
| 2026-05-05 17:12 | 26.72553 | 124.08675 | 34587 ft | 562 kts | 50° |
| 2026-05-05 17:12 | 26.75048 | 124.12044 | 34825 ft | 562 kts | 51° |
| 2026-05-05 17:12 | 26.77526 | 124.15435 | 35028 ft | 563 kts | 51° |
| 2026-05-05 17:12 | 26.80011 | 124.18840 | 35251 ft | 564 kts | 51° |
| 2026-05-05 17:13 | 26.82497 | 124.22229 | 35464 ft | 565 kts | 50° |
| 2026-05-05 17:13 | 26.85004 | 124.25627 | 35700 ft | 565 kts | 49° |
| 2026-05-05 17:13 | 26.87517 | 124.29019 | 35950 ft | 566 kts | 49° |
| 2026-05-05 17:13 | 26.90045 | 124.32421 | 35950 ft | 573 kts | 49° |
| 2026-05-05 17:14 | 26.95174 | 124.39322 | 36344 ft | 575 kts | 49° |
| 2026-05-05 17:14 | 26.97733 | 124.42770 | 36629 ft | 575 kts | 49° |
| 2026-05-05 17:14 | 27.00284 | 124.46217 | 36855 ft | 575 kts | 49° |
| 2026-05-05 17:15 | 27.02835 | 124.49661 | 37071 ft | 575 kts | 49° |
| 2026-05-05 17:15 | 27.05395 | 124.53116 | 37395 ft | 574 kts | 49° |
| 2026-05-05 17:15 | 27.07943 | 124.56557 | 37679 ft | 574 kts | 49° |
| 2026-05-05 17:15 | 27.10500 | 124.60013 | 37899 ft | 575 kts | 49° |
| 2026-05-05 17:16 | 27.13049 | 124.63462 | 38126 ft | 575 kts | 49° |
| 2026-05-05 17:16 | 27.15612 | 124.66932 | 38356 ft | 576 kts | 49° |
| 2026-05-05 17:16 | 27.18165 | 124.70394 | 38580 ft | 576 kts | 49° |
| 2026-05-05 17:16 | 27.20726 | 124.73869 | 38756 ft | 577 kts | 48° |
| 2026-05-05 17:17 | 27.23281 | 124.77339 | 38948 ft | 576 kts | 48° |
| 2026-05-05 17:17 | 27.25833 | 124.80809 | 39187 ft | 576 kts | 49° |
| 2026-05-05 17:17 | 27.28384 | 124.84279 | 39372 ft | 575 kts | 49° |
| 2026-05-05 17:17 | 27.30932 | 124.87748 | 39611 ft | 573 kts | 49° |
| 2026-05-05 17:18 | 27.33461 | 124.91194 | 39868 ft | 571 kts | 49° |
| 2026-05-05 17:18 | 27.35990 | 124.94644 | 40111 ft | 569 kts | 49° |
| 2026-05-05 17:18 | 27.38504 | 124.98074 | 40335 ft | 567 kts | 48° |
| 2026-05-05 17:18 | 27.41011 | 125.01498 | 40500 ft | 566 kts | 48° |
| 2026-05-05 17:19 | 27.43531 | 125.04914 | 40642 ft | 567 kts | 48° |
| 2026-05-05 17:19 | 27.46057 | 125.08318 | 40789 ft | 567 kts | 48° |
| 2026-05-05 17:19 | 27.48587 | 125.11720 | 40971 ft | 565 kts | 48° |
| 2026-05-05 17:19 | 27.51107 | 125.15112 | 41050 ft | 567 kts | 48° |
| 2026-05-05 17:20 | 27.56170 | 125.21943 | 41056 ft | 568 kts | 48° |
| 2026-05-05 17:20 | 27.61201 | 125.28755 | 41063 ft | 568 kts | 48° |
| 2026-05-05 17:21 | 27.66254 | 125.35613 | 41056 ft | 568 kts | 48° |
| 2026-05-05 17:22 | 27.73828 | 125.45912 | 41059 ft | 568 kts | 48° |
| 2026-05-05 17:22 | 27.78872 | 125.52784 | 41059 ft | 568 kts | 48° |
| 2026-05-05 17:23 | 27.83916 | 125.59666 | 41056 ft | 569 kts | 48° |
| 2026-05-05 17:23 | 27.88964 | 125.66565 | 41062 ft | 569 kts | 48° |
| 2026-05-05 17:24 | 27.94002 | 125.73461 | 41090 ft | 569 kts | 48° |
| 2026-05-05 17:24 | 27.99045 | 125.80376 | 41059 ft | 569 kts | 48° |
| 2026-05-05 17:25 | 28.04089 | 125.87302 | 41065 ft | 570 kts | 48° |
| 2026-05-05 17:25 | 28.09092 | 125.94185 | 41064 ft | 570 kts | 48° |
| 2026-05-05 17:26 | 28.14133 | 126.01131 | 41065 ft | 570 kts | 48° |
| 2026-05-05 17:26 | 28.19167 | 126.08077 | 41062 ft | 570 kts | 48° |
| 2026-05-05 17:27 | 28.24196 | 126.15028 | 41062 ft | 570 kts | 49° |
| 2026-05-05 17:27 | 28.29222 | 126.21987 | 41084 ft | 570 kts | 49° |
| 2026-05-05 17:28 | 28.34246 | 126.28955 | 41066 ft | 571 kts | 49° |
| 2026-05-05 17:28 | 28.39257 | 126.35916 | 41066 ft | 572 kts | 49° |
| 2026-05-05 17:29 | 28.43474 | 126.41783 | 41064 ft | 572 kts | 49° |
| 2026-05-05 17:29 | 28.48473 | 126.48749 | 41066 ft | 572 kts | 49° |
| 2026-05-05 17:30 | 28.53509 | 126.55777 | 41067 ft | 572 kts | 49° |
| 2026-05-05 17:30 | 28.58512 | 126.62772 | 41072 ft | 572 kts | 49° |
| 2026-05-05 17:31 | 28.63549 | 126.69825 | 41081 ft | 572 kts | 49° |
| 2026-05-05 17:31 | 28.68542 | 126.76829 | 41067 ft | 572 kts | 49° |
| 2026-05-05 17:32 | 28.73565 | 126.83888 | 41067 ft | 573 kts | 49° |
| 2026-05-05 17:32 | 28.78588 | 126.90956 | 41079 ft | 573 kts | 49° |
| 2026-05-05 17:33 | 28.83607 | 126.98034 | 41058 ft | 573 kts | 49° |
| 2026-05-05 17:33 | 28.88593 | 127.05075 | 41069 ft | 573 kts | 49° |
| 2026-05-05 17:34 | 28.93602 | 127.12161 | 41103 ft | 573 kts | 49° |
| 2026-05-05 17:34 | 28.98622 | 127.19274 | 41071 ft | 574 kts | 49° |
| 2026-05-05 17:35 | 29.03638 | 127.26395 | 41065 ft | 574 kts | 49° |
| 2026-05-05 17:35 | 29.08617 | 127.33475 | 41079 ft | 574 kts | 49° |
| 2026-05-05 17:36 | 29.13628 | 127.40613 | 41069 ft | 574 kts | 49° |
| 2026-05-05 17:36 | 29.18595 | 127.47700 | 41055 ft | 574 kts | 49° |
| 2026-05-05 17:37 | 29.23595 | 127.54847 | 41067 ft | 574 kts | 49° |
| 2026-05-05 17:37 | 29.28582 | 127.61988 | 41080 ft | 573 kts | 49° |
| 2026-05-05 17:38 | 29.33541 | 127.69100 | 41074 ft | 574 kts | 49° |
| 2026-05-05 17:38 | 29.38522 | 127.76257 | 41072 ft | 574 kts | 49° |
| 2026-05-05 17:39 | 29.43505 | 127.83429 | 41083 ft | 574 kts | 49° |
| 2026-05-05 17:39 | 29.48500 | 127.90631 | 41075 ft | 575 kts | 49° |
| 2026-05-05 17:40 | 29.53450 | 127.97782 | 41069 ft | 576 kts | 49° |
| 2026-05-05 17:40 | 29.58429 | 128.04987 | 41087 ft | 575 kts | 49° |
| 2026-05-05 17:41 | 29.63413 | 128.12197 | 41080 ft | 576 kts | 49° |
| 2026-05-05 17:41 | 29.68390 | 128.19410 | 41060 ft | 576 kts | 49° |
| 2026-05-05 17:42 | 29.73357 | 128.26626 | 41083 ft | 575 kts | 49° |
| 2026-05-05 17:42 | 29.78317 | 128.33847 | 41078 ft | 575 kts | 49° |
| 2026-05-05 17:43 | 29.83269 | 128.41068 | 41081 ft | 575 kts | 49° |
| 2026-05-05 17:43 | 29.88223 | 128.48304 | 41100 ft | 575 kts | 49° |
| 2026-05-05 17:44 | 29.93167 | 128.55539 | 41083 ft | 575 kts | 49° |
| 2026-05-05 17:44 | 29.98114 | 128.62792 | 41083 ft | 575 kts | 50° |
| 2026-05-05 17:45 | 30.03052 | 128.70044 | 41084 ft | 575 kts | 50° |
| 2026-05-05 17:45 | 30.07991 | 128.77311 | 41089 ft | 575 kts | 50° |
| 2026-05-05 17:46 | 30.12929 | 128.84590 | 41086 ft | 575 kts | 50° |
| 2026-05-05 17:46 | 30.17860 | 128.91871 | 41095 ft | 575 kts | 50° |
| 2026-05-05 17:47 | 30.22788 | 128.99162 | 41088 ft | 575 kts | 50° |
| 2026-05-05 17:47 | 30.27705 | 129.06452 | 41088 ft | 575 kts | 50° |
| 2026-05-05 17:48 | 30.32626 | 129.13758 | 41089 ft | 575 kts | 50° |
| 2026-05-05 17:48 | 30.37544 | 129.21073 | 41088 ft | 576 kts | 50° |
| 2026-05-05 17:49 | 30.42456 | 129.28393 | 41091 ft | 576 kts | 50° |
| 2026-05-05 17:49 | 30.47369 | 129.35729 | 41077 ft | 576 kts | 50° |
| 2026-05-05 17:50 | 30.52280 | 129.43074 | 41088 ft | 576 kts | 50° |
| 2026-05-05 17:50 | 30.57185 | 129.50425 | 41092 ft | 576 kts | 50° |
| 2026-05-05 17:51 | 30.62082 | 129.57778 | 41095 ft | 575 kts | 50° |
| 2026-05-05 17:51 | 30.66971 | 129.65133 | 41098 ft | 575 kts | 50° |
| 2026-05-05 17:52 | 30.71855 | 129.72494 | 41103 ft | 575 kts | 50° |
| 2026-05-05 17:52 | 30.76736 | 129.79863 | 41103 ft | 575 kts | 50° |
| 2026-05-05 17:53 | 30.81610 | 129.87236 | 41103 ft | 575 kts | 50° |
| 2026-05-05 17:53 | 30.86208 | 129.94868 | 41105 ft | 576 kts | 56° |
| 2026-05-05 17:54 | 30.90483 | 130.02772 | 41109 ft | 577 kts | 57° |
| 2026-05-05 17:54 | 30.94698 | 130.10742 | 41107 ft | 578 kts | 57° |
| 2026-05-05 17:55 | 30.98905 | 130.18720 | 41111 ft | 578 kts | 57° |
| 2026-05-05 17:55 | 31.03119 | 130.26698 | 41104 ft | 578 kts | 57° |
| 2026-05-05 17:56 | 31.07339 | 130.34691 | 41113 ft | 579 kts | 57° |
| 2026-05-05 17:56 | 31.11561 | 130.42702 | 41118 ft | 579 kts | 57° |
| 2026-05-05 17:57 | 31.15778 | 130.50722 | 41123 ft | 580 kts | 57° |
| 2026-05-05 17:57 | 31.19997 | 130.58764 | 41133 ft | 581 kts | 57° |
| 2026-05-05 17:58 | 31.24211 | 130.66813 | 41127 ft | 581 kts | 57° |
| 2026-05-05 17:58 | 31.28422 | 130.74872 | 41137 ft | 581 kts | 57° |
| 2026-05-05 17:59 | 31.32635 | 130.82954 | 41117 ft | 581 kts | 57° |
| 2026-05-05 17:59 | 31.36840 | 130.91035 | 41131 ft | 581 kts | 57° |
| 2026-05-05 18:00 | 31.41035 | 130.99116 | 41142 ft | 580 kts | 57° |
| 2026-05-05 18:00 | 31.45221 | 131.07196 | 41147 ft | 580 kts | 57° |
| 2026-05-05 18:01 | 31.49397 | 131.15271 | 41156 ft | 580 kts | 57° |
| 2026-05-05 18:01 | 31.53566 | 131.23353 | 41147 ft | 579 kts | 57° |
| 2026-05-05 18:02 | 31.57726 | 131.31433 | 41146 ft | 579 kts | 57° |
| 2026-05-05 18:02 | 31.61859 | 131.39479 | 41162 ft | 579 kts | 57° |
| 2026-05-05 18:03 | 31.66042 | 131.47645 | 41140 ft | 580 kts | 57° |
| 2026-05-05 18:03 | 31.70162 | 131.55708 | 41139 ft | 580 kts | 57° |
| 2026-05-05 18:04 | 31.74306 | 131.63834 | 41145 ft | 580 kts | 57° |
| 2026-05-05 18:04 | 31.78451 | 131.71980 | 41143 ft | 581 kts | 57° |
| 2026-05-05 18:05 | 31.82592 | 131.80134 | 41138 ft | 581 kts | 57° |
| 2026-05-05 18:05 | 31.86731 | 131.88302 | 41151 ft | 581 kts | 57° |
| 2026-05-05 18:06 | 31.90867 | 131.96482 | 41156 ft | 582 kts | 57° |
| 2026-05-05 18:06 | 31.95004 | 132.04682 | 41152 ft | 582 kts | 57° |
| 2026-05-05 18:07 | 31.99130 | 132.12878 | 41153 ft | 582 kts | 57° |
| 2026-05-05 18:07 | 32.03257 | 132.21094 | 41143 ft | 582 kts | 57° |
| 2026-05-05 18:08 | 32.07374 | 132.29309 | 41163 ft | 582 kts | 57° |
| 2026-05-05 18:08 | 32.11488 | 132.37536 | 41159 ft | 582 kts | 57° |
| 2026-05-05 18:09 | 32.15452 | 132.45876 | 41154 ft | 584 kts | 62° |
| 2026-05-05 18:09 | 32.19016 | 132.54488 | 41169 ft | 583 kts | 63° |
| 2026-05-05 18:10 | 32.21958 | 132.61721 | 41150 ft | 584 kts | 63° |
| 2026-05-05 18:10 | 32.25530 | 132.70329 | 41164 ft | 583 kts | 62° |
| 2026-05-05 18:11 | 32.29145 | 132.78919 | 41170 ft | 583 kts | 62° |
| 2026-05-05 18:11 | 32.32766 | 132.87512 | 41166 ft | 584 kts | 62° |
| 2026-05-05 18:12 | 32.36377 | 132.96110 | 41164 ft | 584 kts | 62° |
| 2026-05-05 18:12 | 32.39983 | 133.04728 | 41157 ft | 584 kts | 62° |
| 2026-05-05 18:13 | 32.43557 | 133.13295 | 41165 ft | 584 kts | 62° |
| 2026-05-05 18:13 | 32.47170 | 133.21973 | 41164 ft | 584 kts | 62° |
| 2026-05-05 18:14 | 32.50730 | 133.30547 | 41162 ft | 583 kts | 62° |
| 2026-05-05 18:14 | 32.54304 | 133.39172 | 41164 ft | 583 kts | 62° |
| 2026-05-05 18:15 | 32.57889 | 133.47856 | 41174 ft | 583 kts | 62° |
| 2026-05-05 18:15 | 32.61426 | 133.56435 | 41164 ft | 583 kts | 62° |
| 2026-05-05 18:16 | 32.64983 | 133.65072 | 41150 ft | 583 kts | 62° |
| 2026-05-05 18:16 | 32.68559 | 133.73780 | 41167 ft | 582 kts | 63° |
| 2026-05-05 18:17 | 32.72075 | 133.82374 | 41168 ft | 583 kts | 63° |
| 2026-05-05 18:17 | 32.75606 | 133.91025 | 41167 ft | 582 kts | 63° |
| 2026-05-05 18:18 | 32.79135 | 133.99687 | 41175 ft | 582 kts | 63° |
| 2026-05-05 18:18 | 32.82414 | 134.08503 | 41172 ft | 584 kts | 71° |
| 2026-05-05 18:19 | 32.84891 | 134.17699 | 41198 ft | 584 kts | 73° |
| 2026-05-05 18:19 | 32.87190 | 134.26959 | 41170 ft | 584 kts | 74° |
| 2026-05-05 18:20 | 32.89462 | 134.36250 | 41179 ft | 585 kts | 74° |
| 2026-05-05 18:20 | 32.91744 | 134.45526 | 41196 ft | 585 kts | 73° |
| 2026-05-05 18:21 | 32.94037 | 134.54821 | 41182 ft | 584 kts | 73° |
| 2026-05-05 18:21 | 32.96325 | 134.64114 | 41174 ft | 584 kts | 73° |
| 2026-05-05 18:22 | 32.98603 | 134.73404 | 41205 ft | 584 kts | 74° |
| 2026-05-05 18:22 | 33.00874 | 134.82699 | 41186 ft | 585 kts | 74° |
| 2026-05-05 18:23 | 33.03139 | 134.92007 | 41188 ft | 585 kts | 74° |
| 2026-05-05 18:23 | 33.05397 | 135.01323 | 41195 ft | 585 kts | 74° |
| 2026-05-05 18:24 | 33.07649 | 135.10644 | 41188 ft | 585 kts | 74° |
| 2026-05-05 18:24 | 33.09891 | 135.19954 | 41195 ft | 584 kts | 74° |
| 2026-05-05 18:25 | 33.12046 | 135.29296 | 41194 ft | 584 kts | 75° |
| 2026-05-05 18:25 | 33.14098 | 135.38738 | 41198 ft | 584 kts | 76° |
| 2026-05-05 18:26 | 33.16121 | 135.48060 | 41199 ft | 584 kts | 76° |
| 2026-05-05 18:26 | 33.18173 | 135.57448 | 41200 ft | 584 kts | 75° |
| 2026-05-05 18:27 | 33.20229 | 135.66838 | 41201 ft | 584 kts | 76° |
| 2026-05-05 18:27 | 33.22278 | 135.76227 | 41200 ft | 585 kts | 76° |
| 2026-05-05 18:28 | 33.25343 | 135.90347 | 41190 ft | 585 kts | 76° |
| 2026-05-05 18:28 | 33.27374 | 135.99750 | 41204 ft | 584 kts | 76° |
| 2026-05-05 18:29 | 33.29394 | 136.09156 | 41208 ft | 584 kts | 76° |
| 2026-05-05 18:29 | 33.31407 | 136.18567 | 41219 ft | 585 kts | 76° |
| 2026-05-05 18:30 | 33.33416 | 136.27990 | 41213 ft | 586 kts | 76° |
| 2026-05-05 18:30 | 33.35422 | 136.37434 | 41220 ft | 586 kts | 76° |
| 2026-05-05 18:31 | 33.37420 | 136.46876 | 41214 ft | 586 kts | 76° |
| 2026-05-05 18:31 | 33.39411 | 136.56329 | 41217 ft | 585 kts | 76° |
| 2026-05-05 18:32 | 33.41394 | 136.65778 | 41216 ft | 585 kts | 76° |
| 2026-05-05 18:32 | 33.43366 | 136.75216 | 41208 ft | 585 kts | 76° |
| 2026-05-05 18:33 | 33.45334 | 136.84668 | 41224 ft | 584 kts | 76° |
| 2026-05-05 18:33 | 33.47290 | 136.94108 | 41218 ft | 584 kts | 76° |
| 2026-05-05 18:34 | 33.49241 | 137.03557 | 41220 ft | 585 kts | 76° |
| 2026-05-05 18:34 | 33.51187 | 137.13022 | 41218 ft | 585 kts | 76° |
| 2026-05-05 18:35 | 33.53126 | 137.22495 | 41219 ft | 585 kts | 76° |
| 2026-05-05 18:35 | 33.55062 | 137.31992 | 41220 ft | 585 kts | 76° |
| 2026-05-05 18:36 | 33.56978 | 137.41430 | 41228 ft | 585 kts | 77° |
| 2026-05-05 18:36 | 33.58896 | 137.50920 | 41225 ft | 585 kts | 77° |
| 2026-05-05 18:37 | 33.60939 | 137.60378 | 41191 ft | 585 kts | 70° |
| 2026-05-05 18:37 | 33.64374 | 137.69183 | 41229 ft | 581 kts | 60° |
| 2026-05-05 18:38 | 33.68211 | 137.77661 | 40925 ft | 579 kts | 58° |
| 2026-05-05 18:38 | 33.70176 | 137.81889 | 40713 ft | 579 kts | 58° |
| 2026-05-05 18:38 | 33.72144 | 137.86124 | 40501 ft | 581 kts | 58° |
| 2026-05-05 18:39 | 33.74111 | 137.90376 | 40191 ft | 581 kts | 58° |
| 2026-05-05 18:39 | 33.76067 | 137.94633 | 39535 ft | 582 kts | 58° |
| 2026-05-05 18:39 | 33.77992 | 137.98847 | 38910 ft | 583 kts | 58° |
| 2026-05-05 18:39 | 33.79946 | 138.03141 | 38173 ft | 584 kts | 58° |
| 2026-05-05 18:40 | 33.81887 | 138.07419 | 37532 ft | 583 kts | 58° |
| 2026-05-05 18:40 | 33.83837 | 138.11722 | 36867 ft | 583 kts | 59° |
| 2026-05-05 18:40 | 33.85773 | 138.16001 | 36202 ft | 583 kts | 59° |
| 2026-05-05 18:40 | 33.87694 | 138.20247 | 35522 ft | 584 kts | 59° |
| 2026-05-05 18:41 | 33.89636 | 138.24547 | 34809 ft | 585 kts | 59° |
| 2026-05-05 18:41 | 33.91592 | 138.28878 | 33983 ft | 589 kts | 60° |
| 2026-05-05 18:41 | 33.93540 | 138.33221 | 33400 ft | 586 kts | 60° |
| 2026-05-05 18:41 | 33.95466 | 138.37547 | 32868 ft | 582 kts | 60° |
| 2026-05-05 18:42 | 33.97373 | 138.41848 | 32313 ft | 578 kts | 60° |
| 2026-05-05 18:42 | 33.99234 | 138.46050 | 31772 ft | 575 kts | 59° |
| 2026-05-05 18:42 | 34.01114 | 138.50295 | 31232 ft | 571 kts | 59° |
| 2026-05-05 18:42 | 34.02981 | 138.54513 | 30676 ft | 568 kts | 59° |
| 2026-05-05 18:43 | 34.04834 | 138.58702 | 30116 ft | 564 kts | 59° |
| 2026-05-05 18:43 | 34.06678 | 138.62871 | 29534 ft | 559 kts | 59° |
| 2026-05-05 18:43 | 34.08501 | 138.66996 | 29028 ft | 554 kts | 60° |
| 2026-05-05 18:43 | 34.10303 | 138.71081 | 28482 ft | 548 kts | 60° |
| 2026-05-05 18:44 | 34.12087 | 138.75126 | 27968 ft | 543 kts | 60° |
| 2026-05-05 18:44 | 34.13852 | 138.79135 | 27447 ft | 538 kts | 60° |
| 2026-05-05 18:44 | 34.15599 | 138.83109 | 26939 ft | 532 kts | 61° |
| 2026-05-05 18:44 | 34.17323 | 138.87034 | 26430 ft | 527 kts | 61° |
| 2026-05-05 18:45 | 34.19010 | 138.90879 | 25910 ft | 522 kts | 61° |
| 2026-05-05 18:45 | 34.20722 | 138.94784 | 25392 ft | 517 kts | 62° |
| 2026-05-05 18:45 | 34.22374 | 138.98560 | 24906 ft | 511 kts | 62° |
| 2026-05-05 18:45 | 34.24026 | 139.02339 | 24394 ft | 505 kts | 62° |
| 2026-05-05 18:46 | 34.25658 | 139.06073 | 23937 ft | 499 kts | 62° |
| 2026-05-05 18:46 | 34.27268 | 139.09762 | 23380 ft | 492 kts | 62° |
| 2026-05-05 18:46 | 34.28741 | 139.13463 | 22891 ft | 485 kts | 66° |
| 2026-05-05 18:46 | 34.30094 | 139.17177 | 22276 ft | 479 kts | 67° |
| 2026-05-05 18:47 | 34.31391 | 139.20869 | 21755 ft | 473 kts | 68° |
| 2026-05-05 18:47 | 34.32650 | 139.24522 | 21235 ft | 466 kts | 68° |
| 2026-05-05 18:47 | 34.33882 | 139.28124 | 20736 ft | 459 kts | 68° |
| 2026-05-05 18:47 | 34.35091 | 139.31668 | 20223 ft | 453 kts | 68° |
| 2026-05-05 18:48 | 34.36288 | 139.35171 | 19737 ft | 447 kts | 68° |
| 2026-05-05 18:48 | 34.37467 | 139.38615 | 19239 ft | 440 kts | 68° |
| 2026-05-05 18:48 | 34.38634 | 139.42020 | 18760 ft | 434 kts | 68° |
| 2026-05-05 18:48 | 34.39782 | 139.45370 | 18230 ft | 428 kts | 68° |
| 2026-05-05 18:49 | 34.40913 | 139.48670 | 17746 ft | 421 kts | 68° |
| 2026-05-05 18:49 | 34.42026 | 139.51917 | 17261 ft | 413 kts | 68° |
| 2026-05-05 18:49 | 34.42750 | 139.54032 | 16957 ft | 408 kts | 68° |
| 2026-05-05 18:49 | 34.44188 | 139.58238 | 16334 ft | 399 kts | 69° |
| 2026-05-05 18:50 | 34.44887 | 139.60285 | 16039 ft | 395 kts | 69° |
| 2026-05-05 18:50 | 34.45928 | 139.63336 | 15581 ft | 389 kts | 69° |
| 2026-05-05 18:50 | 34.46954 | 139.66346 | 15128 ft | 383 kts | 70° |
| 2026-05-05 18:50 | 34.48031 | 139.69268 | 14693 ft | 379 kts | 63° |
| 2026-05-05 18:51 | 34.49579 | 139.71826 | 14260 ft | 377 kts | 47° |
| 2026-05-05 18:51 | 34.51633 | 139.73770 | 13951 ft | 370 kts | 34° |
| 2026-05-05 18:51 | 34.53766 | 139.75403 | 13806 ft | 355 kts | 33° |
| 2026-05-05 18:51 | 34.55831 | 139.76937 | 13689 ft | 341 kts | 33° |
| 2026-05-05 18:52 | 34.57823 | 139.78408 | 13535 ft | 329 kts | 33° |
| 2026-05-05 18:52 | 34.59742 | 139.79822 | 13387 ft | 317 kts | 33° |
| 2026-05-05 18:52 | 34.61594 | 139.81187 | 13242 ft | 306 kts | 33° |
| 2026-05-05 18:52 | 34.63403 | 139.82521 | 12863 ft | 304 kts | 33° |
| 2026-05-05 18:53 | 34.65186 | 139.83837 | 12464 ft | 303 kts | 33° |
| 2026-05-05 18:53 | 34.66962 | 139.85191 | 12148 ft | 298 kts | 38° |
| 2026-05-05 18:53 | 34.68362 | 139.86971 | 11931 ft | 286 kts | 58° |
| 2026-05-05 18:53 | 34.69765 | 139.88826 | 11894 ft | 319 kts | 43° |
| 2026-05-05 18:54 | 34.71591 | 139.90638 | 11806 ft | 355 kts | 40° |
| 2026-05-05 18:54 | 34.73561 | 139.92537 | 11706 ft | 364 kts | 40° |
| 2026-05-05 18:54 | 34.75569 | 139.94477 | 11474 ft | 364 kts | 40° |
| 2026-05-05 18:54 | 34.77542 | 139.96396 | 11226 ft | 361 kts | 40° |
| 2026-05-05 18:55 | 34.79496 | 139.98305 | 10981 ft | 360 kts | 40° |
| 2026-05-05 18:55 | 34.81446 | 140.00217 | 10742 ft | 358 kts | 40° |
| 2026-05-05 18:55 | 34.83343 | 140.02079 | 10488 ft | 351 kts | 40° |
| 2026-05-05 18:55 | 34.85229 | 140.03932 | 10339 ft | 336 kts | 40° |
| 2026-05-05 18:56 | 34.86994 | 140.05668 | 10224 ft | 314 kts | 40° |
| 2026-05-05 18:56 | 34.88629 | 140.07276 | 10134 ft | 293 kts | 40° |
| 2026-05-05 18:56 | 34.90190 | 140.08815 | 9995 ft | 284 kts | 40° |
| 2026-05-05 18:56 | 34.91740 | 140.10347 | 9704 ft | 294 kts | 40° |
| 2026-05-05 18:57 | 34.93350 | 140.11939 | 9465 ft | 300 kts | 40° |
| 2026-05-05 18:57 | 34.94975 | 140.13544 | 9125 ft | 300 kts | 40° |
| 2026-05-05 18:57 | 34.96565 | 140.15114 | 8730 ft | 297 kts | 40° |
| 2026-05-05 18:57 | 34.98165 | 140.16694 | 8406 ft | 294 kts | 40° |
| 2026-05-05 18:58 | 34.99750 | 140.18262 | 8091 ft | 293 kts | 40° |
| 2026-05-05 18:58 | 35.01328 | 140.19823 | 7770 ft | 291 kts | 41° |
| 2026-05-05 18:58 | 35.02896 | 140.21375 | 7473 ft | 290 kts | 40° |
| 2026-05-05 18:58 | 35.04506 | 140.22854 | 7156 ft | 290 kts | 32° |
| 2026-05-05 18:59 | 35.06388 | 140.23650 | 6943 ft | 287 kts | 6° |
| 2026-05-05 18:59 | 35.08395 | 140.23691 | 6931 ft | 288 kts | 358° |
| 2026-05-05 18:59 | 35.10398 | 140.23576 | 6927 ft | 288 kts | 357° |
| 2026-05-05 18:59 | 35.12397 | 140.23445 | 6924 ft | 287 kts | 357° |
| 2026-05-05 19:00 | 35.14394 | 140.23321 | 6921 ft | 288 kts | 357° |
| 2026-05-05 19:00 | 35.16393 | 140.23203 | 6909 ft | 287 kts | 357° |
| 2026-05-05 19:00 | 35.18386 | 140.23089 | 6913 ft | 287 kts | 358° |
| 2026-05-05 19:00 | 35.20383 | 140.22977 | 6908 ft | 287 kts | 358° |
| 2026-05-05 19:01 | 35.22376 | 140.22866 | 6893 ft | 287 kts | 358° |
| 2026-05-05 19:01 | 35.24372 | 140.22755 | 6888 ft | 287 kts | 358° |
| 2026-05-05 19:01 | 35.26368 | 140.22646 | 6883 ft | 287 kts | 358° |
| 2026-05-05 19:01 | 35.28359 | 140.22536 | 6872 ft | 287 kts | 357° |
| 2026-05-05 19:02 | 35.30360 | 140.22426 | 6863 ft | 287 kts | 357° |
| 2026-05-05 19:02 | 35.32356 | 140.22316 | 6850 ft | 287 kts | 357° |
| 2026-05-05 19:02 | 35.34328 | 140.22208 | 6831 ft | 287 kts | 357° |
| 2026-05-05 19:02 | 35.36350 | 140.22096 | 6826 ft | 287 kts | 357° |
| 2026-05-05 19:03 | 35.38312 | 140.21847 | 6816 ft | 287 kts | 351° |
| 2026-05-05 19:03 | 35.40279 | 140.21442 | 6802 ft | 287 kts | 349° |
| 2026-05-05 19:03 | 35.42231 | 140.21011 | 6781 ft | 287 kts | 349° |
| 2026-05-05 19:03 | 35.44195 | 140.20577 | 6772 ft | 287 kts | 349° |
| 2026-05-05 19:04 | 35.46158 | 140.20146 | 6766 ft | 287 kts | 349° |
| 2026-05-05 19:04 | 35.48125 | 140.19716 | 6758 ft | 287 kts | 349° |
| 2026-05-05 19:04 | 35.50086 | 140.19287 | 6740 ft | 287 kts | 349° |
| 2026-05-05 19:04 | 35.52050 | 140.18858 | 6729 ft | 286 kts | 349° |
| 2026-05-05 19:05 | 35.54012 | 140.18430 | 6717 ft | 286 kts | 349° |
| 2026-05-05 19:05 | 35.55971 | 140.18003 | 6703 ft | 286 kts | 349° |
| 2026-05-05 19:05 | 35.57930 | 140.17575 | 6684 ft | 286 kts | 349° |
| 2026-05-05 19:05 | 35.59889 | 140.17148 | 6678 ft | 286 kts | 349° |
| 2026-05-05 19:06 | 35.61848 | 140.16720 | 6670 ft | 286 kts | 349° |
| 2026-05-05 19:06 | 35.63805 | 140.16293 | 6669 ft | 285 kts | 349° |
| 2026-05-05 19:06 | 35.65753 | 140.15832 | 6653 ft | 285 kts | 345° |
| 2026-05-05 19:06 | 35.67493 | 140.14861 | 6638 ft | 265 kts | 321° |
| 2026-05-05 19:07 | 35.68769 | 140.13350 | 6635 ft | 246 kts | 309° |
| 2026-05-05 19:07 | 35.69840 | 140.11815 | 6617 ft | 225 kts | 307° |
| 2026-05-05 19:07 | 35.70807 | 140.10395 | 6634 ft | 212 kts | 307° |
| 2026-05-05 19:07 | 35.71740 | 140.09025 | 6634 ft | 205 kts | 307° |
| 2026-05-05 19:08 | 35.72633 | 140.07724 | 6481 ft | 192 kts | 307° |
| 2026-05-05 19:08 | 35.73474 | 140.06504 | 6300 ft | 183 kts | 307° |
| 2026-05-05 19:08 | 35.74287 | 140.05324 | 6029 ft | 179 kts | 306° |
| 2026-05-05 19:08 | 35.75089 | 140.04160 | 5717 ft | 177 kts | 306° |
| 2026-05-05 19:09 | 35.75884 | 140.03008 | 5424 ft | 176 kts | 305° |
| 2026-05-05 19:09 | 35.76673 | 140.01866 | 5168 ft | 173 kts | 305° |
| 2026-05-05 19:09 | 35.77442 | 140.00754 | 4983 ft | 168 kts | 304° |
| 2026-05-05 19:09 | 35.78189 | 139.99655 | 4848 ft | 166 kts | 302° |
| 2026-05-05 19:10 | 35.78693 | 139.98421 | 4710 ft | 159 kts | 278° |
| 2026-05-05 19:10 | 35.78641 | 139.97113 | 4604 ft | 152 kts | 248° |
| 2026-05-05 19:10 | 35.78069 | 139.96065 | 4478 ft | 147 kts | 221° |
| 2026-05-05 19:10 | 35.77258 | 139.95322 | 4343 ft | 144 kts | 212° |
| 2026-05-05 19:11 | 35.76419 | 139.94651 | 4210 ft | 143 kts | 213° |
| 2026-05-05 19:11 | 35.75600 | 139.93956 | 4086 ft | 143 kts | 214° |
| 2026-05-05 19:11 | 35.74792 | 139.93257 | 4014 ft | 141 kts | 214° |
| 2026-05-05 19:11 | 35.73983 | 139.92557 | 4007 ft | 142 kts | 214° |
| 2026-05-05 19:12 | 35.73171 | 139.91857 | 3957 ft | 143 kts | 213° |
| 2026-05-05 19:12 | 35.72355 | 139.91155 | 3814 ft | 143 kts | 213° |
| 2026-05-05 19:12 | 35.71547 | 139.90458 | 3599 ft | 141 kts | 213° |
| 2026-05-05 19:12 | 35.70746 | 139.89767 | 3417 ft | 140 kts | 213° |
| 2026-05-05 19:13 | 35.69949 | 139.89079 | 3218 ft | 139 kts | 212° |
| 2026-05-05 19:13 | 35.69156 | 139.88396 | 3027 ft | 139 kts | 212° |
| 2026-05-05 19:13 | 35.68367 | 139.87715 | 2844 ft | 139 kts | 212° |
| 2026-05-05 19:13 | 35.67577 | 139.87034 | 2653 ft | 139 kts | 212° |
| 2026-05-05 19:14 | 35.66785 | 139.86353 | 2473 ft | 139 kts | 212° |
| 2026-05-05 19:14 | 35.65998 | 139.85674 | 2268 ft | 138 kts | 212° |
| 2026-05-05 19:14 | 35.65211 | 139.84997 | 2083 ft | 138 kts | 212° |
| 2026-05-05 19:14 | 35.64421 | 139.84316 | 1890 ft | 139 kts | 213° |
| 2026-05-05 19:15 | 35.63627 | 139.83630 | 1705 ft | 140 kts | 212° |
| 2026-05-05 19:15 | 35.62827 | 139.82943 | 1509 ft | 141 kts | 212° |
| 2026-05-05 19:15 | 35.62020 | 139.82249 | 1331 ft | 142 kts | 212° |
| 2026-05-05 19:15 | 35.61215 | 139.81556 | 1134 ft | 142 kts | 212° |
| 2026-05-05 19:16 | 35.60405 | 139.80859 | 945 ft | 143 kts | 212° |
| 2026-05-05 19:16 | 35.59594 | 139.80151 | 746 ft | 143 kts | 213° |
| 2026-05-05 19:16 | 35.58765 | 139.79436 | 521 ft | 149 kts | 212° |
| 2026-05-05 19:16 | 35.57911 | 139.78711 | 376 ft | 150 kts | 213° |
| 2026-05-05 19:17 | 35.57060 | 139.77980 | 154 ft | 148 kts | 214° |
| 2026-05-05 19:17 | 35.56232 | 139.77261 | 32 ft | 138 kts | 213° |
| 2026-05-05 19:17 | 35.55622 | 139.76748 | 31 ft | 65 kts | 214° |
| 2026-05-05 19:17 | 35.55381 | 139.76546 | 31 ft | 36 kts | 213° |
| 2026-05-05 19:18 | 35.55208 | 139.76466 | 31 ft | 20 kts | 192° |
| 2026-05-05 19:18 | 35.55090 | 139.76474 | 29 ft | 15 kts | 133° |
| 2026-05-05 19:18 | 35.55087 | 139.76571 | 29 ft | 12 kts | 63° |
| 2026-05-05 19:18 | 35.55132 | 139.76671 | 29 ft | 15 kts | 59° |
| 2026-05-05 19:19 | 35.55191 | 139.76794 | 29 ft | 18 kts | 59° |
| 2026-05-05 19:19 | 35.55259 | 139.76935 | 29 ft | 18 kts | 59° |
| 2026-05-05 19:19 | 35.55249 | 139.77052 | 29 ft | 14 kts | 142° |
| 2026-05-05 19:19 | 35.55156 | 139.77121 | 29 ft | 17 kts | 149° |
| 2026-05-05 19:20 | 35.55046 | 139.77199 | 29 ft | 19 kts | 150° |
| 2026-05-05 19:20 | 35.54925 | 139.77284 | 29 ft | 19 kts | 149° |
| 2026-05-05 19:20 | 35.54820 | 139.77279 | 29 ft | 16 kts | 230° |
| 2026-05-05 19:20 | 35.54763 | 139.77160 | 29 ft | 17 kts | 239° |
| 2026-05-05 19:21 | 35.54683 | 139.77092 | 29 ft | 13 kts | 173° |
| 2026-05-05 19:21 | 35.54611 | 139.77136 | 29 ft | 10 kts | 143° |
| 2026-05-05 19:21 | 35.54607 | 139.77169 | 29 ft | 2 kts | 65° |
| 2026-05-05 19:21 | 35.54619 | 139.77193 | 29 ft | 5 kts | 58° |
| 2026-05-05 19:22 | 35.54638 | 139.77230 | 29 ft | 0 kts | 59° |